• Join FlightAware (Why Join?)
  • Login
  • US Flag 
07:04AM EST


 

Airport Tracker/Info


-or-


 

Live Flight TrackerFlight Track Log ✈ UAL6044 ✈ 29-Apr-2013 ✈ KIND - KIAD

Flight Track Log - Related Links

Times and Time Zones

All times are in EDT time to prevent confusion due to time zone crossing. See the UAL6044 flight status page for this flight to view local times or setup timezone preferences in your user account.

Time Position Orientation Groundspeed Altitude Reporting Facility
EDT Latitude Longitude Course Direction KTS MPH feet Rate Location/Type
02:31PM 39.6167 -86.3500 197° South 255 293 4,200  Level Indianapolis TRACON
02:32PM 39.6022 -86.3006 111° Southeast 261 300 5,500 1,440 Climbing Indianapolis Center
02:33PM 39.6044 -86.2022 88° East 274 315 6,700 1,860 Climbing Indianapolis Center
02:34PM 39.8100 -85.6100 79° East  Level FlightAware Approximate
02:34PM 39.6261 -86.1092 73° East 278 320 9,400  Level Indianapolis Center
02:35PM 39.8367 -85.4768 74° East  Level FlightAware Approximate
02:35PM 39.6753 -85.9989 60° Northeast 303 349 11,000  Level Indianapolis Center
02:36PM 39.7092 -85.8769 70° East 355 409 12,500 1,680 Climbing Indianapolis Center
02:37PM 39.7406 -85.7483 72° East 370 426 14,500 1,620 Climbing Indianapolis Center
02:38PM 39.7500 -85.6125 85° East 377 434 15,900 1,320 Climbing Indianapolis Center
02:39PM 39.7611 -85.4719 84° East 388 447 17,300 1,500 Climbing Indianapolis Center
02:40PM 39.7714 -85.3306 85° East 390 449 19,100 1,740 Climbing Indianapolis Center
02:41PM 39.7814 -85.1900 85° East 389 448 21,000 1,920 Climbing Indianapolis Center
02:42PM 39.7933 -85.0269 85° East 388 447 23,100 1,860 Climbing Indianapolis Center
02:43PM 39.8036 -84.8869 84° East 386 444 24,900 900 Climbing Indianapolis Center
02:44PM 39.8119 -84.7533 85° East 401 461 25,000  Climbing Indianapolis Center
02:45PM 39.8233 -84.5944 85° East 434 499 25,000 240 Level Indianapolis Center
02:46PM 39.8358 -84.4014 85° East 455 524 25,500 900 Climbing Indianapolis Center
02:47PM 39.8464 -84.2431 85° East 437 503 26,900 720 Climbing Indianapolis Center
02:48PM 39.8564 -84.0833 85° East 439 505 27,000 180 Climbing Indianapolis Center
02:49PM 39.8669 -83.9233 85° East 439 505 27,300 960 Climbing Indianapolis Center
02:50PM 39.8758 -83.7700 86° East 424 488 29,000 1,680 Climbing Indianapolis Center
02:51PM 39.8842 -83.6233 86° East 405 466 30,800 1,680 Climbing Indianapolis Center
02:52PM 39.8942 -83.4847 85° East 396 456 32,500 1,020 Climbing Indianapolis Center
02:53PM 39.9019 -83.3283 86° East 393 452 33,000 240 Climbing Indianapolis Center
02:54PM 39.9106 -83.1711 86° East 424 488 33,000  Level Indianapolis Center
02:55PM 39.9192 -83.0067 86° East 447 514 33,000  Level Indianapolis Center
02:56PM 39.9281 -82.8389 86° East 459 528 33,000  Level Indianapolis Center
02:57PM 39.9303 -82.6692 89° East 464 534 33,000  Level Indianapolis Center
02:58PM 39.9056 -82.4717 99° East 470 541 33,000  Level Indianapolis Center
02:59PM 39.8842 -82.3036 99° East 467 537 33,000  Level Indianapolis Center
03:01PM 39.8642 -82.1353 99° East 467 537 33,000  Level Indianapolis Center
03:02PM 39.8431 -81.9694 99° East 463 533 33,000  Level Indianapolis Center
03:03PM 39.8222 -81.8022 99° East 463 533 33,000  Level Indianapolis Center
03:04PM 39.8000 -81.6378 100° East 460 529 33,000  Level Indianapolis Center
03:04PM 39.7919 -81.5450 96° East 462 532 33,000  Level Cleveland Center
03:05PM 39.7703 -81.3853 100° East 462 532 33,000  Level Cleveland Center
03:06PM 39.7506 -81.2231 99° East 462 532 33,000  Level Cleveland Center
03:07PM 39.7264 -81.0581 101° East 462 532 33,000  Level Cleveland Center
03:08PM 39.7061 -80.8961 99° East 462 532 33,000  Level Cleveland Center
03:09PM 39.6836 -80.7342 100° East 457 526 33,000  Level Cleveland Center
03:10PM 39.6606 -80.5722 100° East 457 526 33,000  Level Cleveland Center
03:11PM 39.6375 -80.4053 100° East 457 526 33,000  Level Cleveland Center
03:12PM 39.6164 -80.2408 99° East 462 532 33,000 -300 Level Cleveland Center
03:13PM 39.6006 -80.1433 102° East 457 526 32,500 -1,020 Descending Washington Center
03:14PM 39.5775 -79.9803 100° East 457 526 31,300 -1,560 Descending Washington Center
03:15PM 39.5522 -79.8172 101° East 457 526 29,500 -1,620 Descending Washington Center
03:16PM 39.5242 -79.6569 103° East 452 520 28,100 -1,260 Descending Washington Center
03:17PM 39.4961 -79.5019 103° East 452 520 27,000 -900 Descending Washington Center
03:18PM 39.4675 -79.3500 104° East 447 514 26,300 -780 Descending Washington Center
03:19PM 39.4369 -79.1897 104° East 447 514 25,500 -1,380 Descending Washington Center
03:20PM 39.4103 -79.0381 103° East 447 514 23,600 -2,280 Descending Washington Center
03:21PM 39.3831 -78.8944 104° East 430 495 20,900 -2,820 Descending Washington Center
03:22PM 39.3575 -78.7536 103° East 413 475 18,000 -2,700 Descending Washington Center
03:23PM 39.3339 -78.6183 103° East 400 460 15,700 -2,280 Descending Washington Center
03:24PM 39.3100 -78.4914 104° East 380 437 13,500 -1,920 Descending Washington Center
03:25PM 39.2878 -78.3725 104° East 355 409 11,900 -1,260 Descending Washington Center
03:26PM 39.2419 -78.2794 122° Southeast 324 373 11,000 -960 Descending Washington Center
03:27PM 39.2000 -78.2003 124° Southeast 291 335 10,100 -1,260 Descending Washington Center
03:28PM 39.1558 -78.1211 126° Southeast 273 314 8,500 -1,560 Descending Washington Center
03:29PM 39.1178 -78.0447 123° Southeast 263 303 7,000 -900 Descending Washington Center
03:30PM 39.0514 -78.0267 168° South 237 273 6,800 -540 Descending Washington Center
03:31PM 39.0003 -77.9769 143° Southeast 237 273 6,000 -420 Descending Washington Center
03:32PM 38.9875 -77.8883 100° East 219 252 6,000  Level Washington Center
03:34PM 38.9667 -77.7167 99° East 246 283 6,000  Level Potomac TRACON
03:35PM 38.9667 -77.6333 90° East 251 289 6,000  Level Potomac TRACON
03:36PM 39.0167 -77.5833 38° Northeast 250 288 6,000  Level Potomac TRACON
03:37PM 39.0667 -77.5667 15° North 226 260 6,000  Level Potomac TRACON
03:38PM 39.1333 -77.5833 349° North 216 249 6,000  Level Potomac TRACON
03:39PM 39.1833 -77.5833 360° North 199 229 6,000  Level Potomac TRACON
03:40PM 39.2500 -77.5833 360° North 193 222 6,000  Level Potomac TRACON
03:41PM 39.3000 -77.5833 360° North 198 228 6,000 -60 Level Potomac TRACON
03:42PM 39.3167 -77.5333 67° East 190 219 5,900 -540 Descending Potomac TRACON
03:43PM 39.3000 -77.4833 113° Southeast 178 205 5,000 -480 Descending Potomac TRACON
03:44PM 39.2667 -77.4500 142° Southeast 174 200 5,000 -60 Level Potomac TRACON
03:45PM 39.2167 -77.4500 180° South 184 212 4,900 -540 Descending Potomac TRACON
03:46PM 39.1667 -77.4500 180° South 185 213 4,000 -900 Descending Potomac TRACON